Time;durP1;ratioP1;P1;durP2;ratioP2;P2;SDS_P1;SDS_P2;PMS_P1;PMS_P2;Temp;Humidity;BMP_temperature;BMP_pressure;BME280_temperature;BME280_humidity;BME280_pressure;Samples;Min_cycle;Max_cycle;Signal;HPM_P1;HPM_P2
2023/09/08 00:00:57;;;;;;;7.83;2.53;;;18.50;99.90;;;;;;5052840;28;20441;-80
2023/09/08 00:03:24;;;;;;;2.33;2.13;;;18.50;99.90;;;;;;5052529;28;20463;-80
2023/09/08 00:05:51;;;;;;;3.10;1.73;;;18.50;99.90;;;;;;5052707;28;20453;-80
2023/09/08 00:08:18;;;;;;;2.90;2.20;;;18.50;99.90;;;;;;5052450;28;20445;-80
2023/09/08 00:10:44;;;;;;;2.43;1.73;;;18.40;99.90;;;;;;5052861;28;20442;-80
2023/09/08 00:13:12;;;;;;;2.67;2.47;;;18.50;99.90;;;;;;5052459;28;20438;-80
2023/09/08 00:15:39;;;;;;;2.00;1.47;;;18.40;99.90;;;;;;5052645;28;20469;-80
2023/09/08 00:18:06;;;;;;;3.37;2.27;;;18.30;99.90;;;;;;5053159;28;20442;-80
2023/09/08 00:20:33;;;;;;;3.57;2.60;;;18.30;99.90;;;;;;5052978;28;20952;-80
2023/09/08 00:22:59;;;;;;;2.80;2.30;;;18.20;99.90;;;;;;5052352;28;20977;-80
2023/09/08 00:25:26;;;;;;;2.23;1.70;;;18.20;99.90;;;;;;5052068;28;20489;-80
2023/09/08 00:27:53;;;;;;;4.80;2.27;;;18.20;99.90;;;;;;5052609;28;20446;-80
2023/09/08 00:30:21;;;;;;;4.03;2.80;;;18.20;99.90;;;;;;5052618;28;20448;-80
2023/09/08 00:32:48;;;;;;;3.90;2.80;;;18.20;99.90;;;;;;5056163;28;20448;-80
2023/09/08 00:35:14;;;;;;;2.63;1.83;;;18.10;99.90;;;;;;5056361;28;20469;-80
2023/09/08 00:37:41;;;;;;;3.27;1.70;;;18.10;99.90;;;;;;5056060;28;20450;-80
2023/09/08 00:40:09;;;;;;;2.97;2.07;;;18.10;99.90;;;;;;5055934;28;20847;-80
2023/09/08 00:42:36;;;;;;;3.30;2.40;;;18.10;99.90;;;;;;5056040;28;20446;-80
2023/09/08 00:45:03;;;;;;;3.40;2.50;;;18.00;99.90;;;;;;5055873;28;20466;-80
2023/09/08 00:47:31;;;;;;;4.20;2.40;;;18.00;99.90;;;;;;5055907;28;20822;-80
2023/09/08 00:49:58;;;;;;;3.23;2.20;;;17.90;99.90;;;;;;5055844;28;20438;-80
2023/09/08 00:52:30;;;;;;;4.20;2.70;;;17.90;99.90;;;;;;5055738;28;20809;-80
2023/09/08 00:54:57;;;;;;;3.17;1.87;;;17.90;99.90;;;;;;5055755;28;20477;-80
2023/09/08 00:57:24;;;;;;;3.40;2.57;;;17.90;99.90;;;;;;5055704;28;20815;-80
2023/09/08 00:59:51;;;;;;;4.67;2.80;;;17.80;99.90;;;;;;5055604;28;20559;-80
2023/09/08 01:02:18;;;;;;;4.20;2.40;;;17.80;99.90;;;;;;5055639;28;20453;-80
2023/09/08 01:04:46;;;;;;;3.57;2.50;;;17.80;99.90;;;;;;5055537;28;20497;-80
2023/09/08 01:07:15;;;;;;;10.37;2.60;;;17.90;99.90;;;;;;5055216;28;20934;-80
2023/09/08 01:09:43;;;;;;;3.53;2.50;;;17.80;99.90;;;;;;5055443;28;20446;-80
2023/09/08 01:12:10;;;;;;;5.43;2.67;;;17.80;99.90;;;;;;5056457;28;20790;-80
2023/09/08 01:14:36;;;;;;;3.67;2.27;;;17.70;99.90;;;;;;5055325;28;20469;-80
2023/09/08 01:17:03;;;;;;;2.80;2.13;;;17.70;99.90;;;;;;5055032;28;20796;-80
2023/09/08 01:19:30;;;;;;;3.53;2.00;;;17.70;99.90;;;;;;5054871;28;20853;-80
2023/09/08 01:22:18;;;;;;;3.53;2.50;;;17.60;99.90;;;;;;5055233;28;20446;-80
2023/09/08 01:25:19;;;;;;;2.97;2.33;;;17.60;99.90;;;;;;5055889;28;20885;-80
2023/09/08 01:27:48;;;;;;;1.90;1.57;;;17.60;99.90;;;;;;5036843;28;20511;-80
2023/09/08 01:30:16;;;;;;;2.20;1.97;;;18.00;99.90;;;;;;5055232;28;20448;-80
2023/09/08 01:32:44;;;;;;;4.93;2.10;;;17.60;99.90;;;;;;5055055;28;20441;-80
2023/09/08 01:35:11;;;;;;;4.43;2.27;;;17.50;99.90;;;;;;5054620;28;20473;-80
2023/09/08 01:37:41;;;;;;;5.43;2.30;;;17.50;99.90;;;;;;5054951;28;20441;-80
2023/09/08 01:40:09;;;;;;;3.43;2.20;;;17.50;99.90;;;;;;5054888;28;20462;-80
2023/09/08 01:42:37;;;;;;;2.87;2.40;;;17.40;99.90;;;;;;5053784;28;20450;-80
2023/09/08 01:45:05;;;;;;;2.70;1.83;;;17.40;99.90;;;;;;5054431;28;20841;-80
2023/09/08 01:47:32;;;;;;;5.80;2.20;;;17.40;99.90;;;;;;5054788;28;20450;-80
2023/09/08 01:49:59;;;;;;;2.27;2.10;;;17.40;99.90;;;;;;5054706;28;20442;-80
2023/09/08 01:52:25;;;;;;;8.10;2.07;;;17.40;99.90;;;;;;5054641;28;20452;-80
2023/09/08 01:54:52;;;;;;;3.40;2.30;;;17.40;99.90;;;;;;5054535;28;20465;-80
2023/09/08 01:57:19;;;;;;;4.07;1.90;;;17.40;99.90;;;;;;5054544;28;20452;-80
2023/09/08 01:59:47;;;;;;;2.93;2.20;;;17.40;99.90;;;;;;5054393;28;20477;-80
2023/09/08 02:02:15;;;;;;;3.63;2.37;;;17.40;99.90;;;;;;5054484;28;20812;-80
2023/09/08 02:04:41;;;;;;;2.20;2.00;;;17.40;99.90;;;;;;5054353;28;20461;-80
2023/09/08 02:07:08;;;;;;;3.27;2.23;;;17.50;99.90;;;;;;5054412;28;20450;-80
2023/09/08 02:09:36;;;;;;;3.00;2.10;;;17.40;99.90;;;;;;5054363;28;20433;-80
2023/09/08 02:12:03;;;;;;;4.20;2.50;;;17.40;99.90;;;;;;5054274;28;20454;-80
2023/09/08 02:14:30;;;;;;;4.20;2.47;;;17.40;99.90;;;;;;5054709;28;20473;-80
2023/09/08 02:16:58;;;;;;;3.93;2.20;;;17.40;99.90;;;;;;5054123;28;20958;-79
2023/09/08 02:19:25;;;;;;;2.80;2.07;;;17.40;99.90;;;;;;5054013;28;20477;-80
2023/09/08 02:21:52;;;;;;;2.97;2.00;;;17.40;99.90;;;;;;5054143;28;20445;-80
2023/09/08 02:24:18;;;;;;;2.43;1.70;;;17.40;99.90;;;;;;5053963;28;20457;-80
2023/09/08 02:26:45;;;;;;;4.43;3.03;;;17.30;99.90;;;;;;5053803;28;20481;-80
2023/09/08 02:29:12;;;;;;;4.93;2.40;;;17.30;99.90;;;;;;5053947;28;20473;-80
2023/09/08 02:31:39;;;;;;;4.10;2.10;;;17.30;99.90;;;;;;5054099;28;20445;-80
2023/09/08 02:34:07;;;;;;;4.27;2.63;;;17.30;99.90;;;;;;5053599;28;20935;-80
2023/09/08 02:36:33;;;;;;;4.60;2.17;;;17.20;99.90;;;;;;5053727;28;20989;-80
2023/09/08 02:39:00;;;;;;;2.87;1.87;;;17.20;99.90;;;;;;5053711;28;20501;-80
2023/09/08 02:41:27;;;;;;;3.50;2.73;;;17.20;99.90;;;;;;5053617;28;20434;-80
2023/09/08 02:43:54;;;;;;;4.20;1.93;;;17.10;99.90;;;;;;5053400;28;20954;-80
2023/09/08 02:46:20;;;;;;;6.07;2.63;;;17.10;99.90;;;;;;5053597;28;20472;-80
2023/09/08 02:48:47;;;;;;;3.83;2.33;;;17.00;99.90;;;;;;5053549;28;20942;-80
2023/09/08 02:51:15;;;;;;;2.00;1.67;;;17.00;99.90;;;;;;5053605;28;20500;-80
2023/09/08 02:53:42;;;;;;;3.33;2.77;;;16.90;99.90;;;;;;5053014;28;20440;-79
2023/09/08 02:56:09;;;;;;;3.00;2.20;;;16.90;99.90;;;;;;5053149;28;20481;-80
2023/09/08 02:58:36;;;;;;;2.33;2.13;;;16.90;99.90;;;;;;5053468;28;20430;-80
2023/09/08 03:01:14;;;;;;;2.70;2.27;;;16.90;99.90;;;;;;5053135;28;20473;-80
2023/09/08 03:03:41;;;;;;;4.33;1.93;;;16.90;99.90;;;;;;5053354;28;20446;-80
2023/09/08 03:06:08;;;;;;;1.97;1.50;;;16.90;99.90;;;;;;5053316;28;20468;-80
2023/09/08 03:08:37;;;;;;;2.57;2.33;;;16.90;99.90;;;;;;5053030;28;20442;-80
2023/09/08 03:11:05;;;;;;;3.30;2.67;;;16.80;99.90;;;;;;5053321;28;20446;-80
2023/09/08 03:13:32;;;;;;;2.63;1.93;;;16.80;99.90;;;;;;5053250;28;20446;-79
2023/09/08 03:16:03;;;;;;;4.33;2.60;;;16.70;99.90;;;;;;5052822;28;21010;-80
2023/09/08 03:18:30;;;;;;;1.97;1.73;;;16.70;99.90;;;;;;5053238;28;20434;-80
2023/09/08 03:20:56;;;;;;;3.50;2.10;;;16.60;99.90;;;;;;5053150;28;20496;-80
2023/09/08 03:23:23;;;;;;;2.53;2.13;;;16.70;99.90;;;;;;5053454;28;20460;-80
2023/09/08 03:25:51;;;;;;;2.20;2.00;;;16.60;99.90;;;;;;5052945;28;20492;-79
2023/09/08 03:28:18;;;;;;;2.97;2.03;;;16.60;99.90;;;;;;5053154;28;20450;-79
2023/09/08 03:30:45;;;;;;;1.73;1.53;;;16.60;99.90;;;;;;5053041;28;20452;-79
2023/09/08 03:33:12;;;;;;;5.57;2.50;;;16.60;99.90;;;;;;5053087;28;20441;-79
2023/09/08 03:35:39;;;;;;;3.57;2.57;;;16.70;99.90;;;;;;5052748;28;20450;-80
2023/09/08 03:38:05;;;;;;;2.70;2.27;;;16.70;99.90;;;;;;5053058;28;20817;-80
2023/09/08 03:40:32;;;;;;;5.57;2.73;;;16.70;99.90;;;;;;5052550;28;20485;-79
2023/09/08 03:43:00;;;;;;;4.00;2.00;;;16.60;99.90;;;;;;5053260;28;20453;-80
2023/09/08 03:45:27;;;;;;;3.60;2.37;;;16.70;99.90;;;;;;5052951;28;20472;-80
2023/09/08 03:47:53;;;;;;;2.47;2.27;;;16.70;99.90;;;;;;5052939;28;20446;-80
2023/09/08 03:50:20;;;;;;;3.60;1.90;;;16.60;99.90;;;;;;5052960;28;20438;-80
2023/09/08 03:52:47;;;;;;;2.97;2.07;;;16.70;99.90;;;;;;5052917;28;20477;-79
2023/09/08 03:55:14;;;;;;;2.43;2.20;;;16.60;99.90;;;;;;5052844;28;20470;-79
2023/09/08 03:57:41;;;;;;;3.70;1.90;;;16.60;99.90;;;;;;5052804;28;20989;-79
2023/09/08 04:00:11;;;;;;;1.80;1.70;;;16.60;99.90;;;;;;5052755;28;20489;-80
2023/09/08 04:02:38;;;;;;;3.00;2.37;;;16.60;99.90;;;;;;5053128;28;20422;-80
2023/09/08 04:05:06;;;;;;;2.90;2.40;;;16.50;99.90;;;;;;5052405;28;20981;-80
2023/09/08 04:07:32;;;;;;;2.80;2.10;;;16.60;99.90;;;;;;5056323;28;20949;-80
2023/09/08 04:09:59;;;;;;;3.90;2.33;;;16.50;99.90;;;;;;5056615;28;20453;-80
2023/09/08 04:12:26;;;;;;;3.00;2.53;;;16.40;99.90;;;;;;5056561;28;20451;-79
2023/09/08 04:14:53;;;;;;;3.97;2.63;;;16.40;99.90;;;;;;5057087;28;20472;-79
2023/09/08 04:17:21;;;;;;;3.47;2.60;;;16.40;99.90;;;;;;5056508;28;20532;-80
2023/09/08 04:19:48;;;;;;;3.70;2.10;;;16.30;99.90;;;;;;5056389;28;20489;-80
2023/09/08 04:22:14;;;;;;;4.07;2.20;;;16.30;99.90;;;;;;5056357;28;20445;-80
2023/09/08 04:24:41;;;;;;;2.47;2.20;;;16.30;99.90;;;;;;5055980;28;20469;-79
2023/09/08 04:27:10;;;;;;;3.30;2.30;;;16.30;99.90;;;;;;5055859;28;20473;-79
2023/09/08 04:29:37;;;;;;;3.07;2.30;;;16.30;99.90;;;;;;5056290;28;20441;-79
2023/09/08 04:32:08;;;;;;;3.17;2.40;;;16.30;99.90;;;;;;5056247;28;20442;-80
2023/09/08 04:34:38;;;;;;;2.60;2.40;;;16.30;99.90;;;;;;5056079;28;20552;-80
2023/09/08 04:37:05;;;;;;;2.10;1.90;;;16.30;99.90;;;;;;5056094;28;20792;-80
2023/09/08 04:39:32;;;;;;;2.60;2.40;;;16.30;99.90;;;;;;5056066;28;20791;-80
2023/09/08 04:41:59;;;;;;;3.17;2.13;;;16.20;99.90;;;;;;5056039;28;20454;-80
2023/09/08 04:44:25;;;;;;;2.70;1.93;;;16.20;99.90;;;;;;5055649;28;20452;-80
2023/09/08 04:46:52;;;;;;;4.17;2.00;;;16.20;99.90;;;;;;5055816;28;20942;-80
2023/09/08 04:49:19;;;;;;;4.40;2.20;;;16.20;99.90;;;;;;5056248;28;20445;-80
2023/09/08 04:51:47;;;;;;;4.03;2.37;;;16.20;99.90;;;;;;5055876;28;20442;-80
2023/09/08 04:54:14;;;;;;;5.43;3.57;;;16.30;99.90;;;;;;5056013;28;20446;-80
2023/09/08 04:56:41;;;;;;;2.63;2.40;;;16.20;99.90;;;;;;5055729;28;20442;-80
2023/09/08 04:59:07;;;;;;;4.03;2.47;;;16.20;99.90;;;;;;5055422;28;20476;-80
2023/09/08 05:01:37;;;;;;;4.50;2.90;;;16.20;99.90;;;;;;5055599;28;20490;-80
2023/09/08 05:04:04;;;;;;;2.60;2.40;;;16.20;99.90;;;;;;5055315;28;21017;-80
2023/09/08 05:06:31;;;;;;;2.60;2.10;;;16.10;99.90;;;;;;5055757;28;20462;-80
2023/09/08 05:08:59;;;;;;;3.93;2.27;;;16.10;99.90;;;;;;5055218;28;20457;-80
2023/09/08 05:11:26;;;;;;;3.30;3.00;;;16.10;99.90;;;;;;5055481;28;20441;-80
2023/09/08 05:13:53;;;;;;;5.43;2.40;;;16.10;99.90;;;;;;5056103;28;20441;-80
2023/09/08 05:16:25;;;;;;;3.60;2.97;;;16.20;99.90;;;;;;5055259;28;20466;-80
2023/09/08 05:18:52;;;;;;;3.87;2.73;;;16.20;99.90;;;;;;5055816;28;20442;-80
2023/09/08 05:21:19;;;;;;;4.70;3.30;;;16.20;99.90;;;;;;5056254;28;20507;-79
2023/09/08 05:23:46;;;;;;;5.37;3.30;;;16.20;99.90;;;;;;5056557;28;20453;-80
2023/09/08 05:26:14;;;;;;;3.40;2.67;;;16.20;99.90;;;;;;5055625;28;20856;-80
2023/09/08 05:28:41;;;;;;;3.53;2.60;;;16.20;99.90;;;;;;5055812;28;20446;-80
2023/09/08 05:31:07;;;;;;;3.90;2.47;;;16.30;99.90;;;;;;5056273;28;20773;-80
2023/09/08 05:33:34;;;;;;;6.20;2.97;;;16.30;99.90;;;;;;5054818;28;20450;-80
2023/09/08 05:36:01;;;;;;;3.20;2.47;;;16.30;99.90;;;;;;5054993;28;20468;-80
2023/09/08 05:38:28;;;;;;;4.50;2.80;;;16.40;99.90;;;;;;5054693;28;20460;-80
2023/09/08 05:40:55;;;;;;;2.87;2.63;;;16.30;99.90;;;;;;5054839;28;20842;-80
2023/09/08 05:43:25;;;;;;;10.43;3.07;;;16.40;99.90;;;;;;5054555;28;20942;-80
2023/09/08 05:45:52;;;;;;;2.83;2.50;;;16.40;99.90;;;;;;5054532;28;20458;-80
2023/09/08 05:48:19;;;;;;;3.50;2.50;;;16.40;99.90;;;;;;5054848;28;20458;-80
2023/09/08 05:50:46;;;;;;;4.07;3.60;;;16.50;99.90;;;;;;5054780;28;20817;-80
2023/09/08 05:53:12;;;;;;;2.43;2.00;;;16.50;99.90;;;;;;5054395;28;20965;-80
2023/09/08 05:55:39;;;;;;;2.97;2.53;;;16.60;99.90;;;;;;5054474;28;20481;-80
2023/09/08 05:58:07;;;;;;;4.20;2.83;;;16.60;99.90;;;;;;5054843;28;20450;-80
2023/09/08 06:00:35;;;;;;;3.07;2.77;;;16.60;99.90;;;;;;5054436;28;20488;-80
2023/09/08 06:03:02;;;;;;;3.03;2.60;;;16.60;99.90;;;;;;5054545;28;20442;-80
2023/09/08 06:05:29;;;;;;;5.03;3.20;;;16.70;99.90;;;;;;5054281;28;20835;-80
2023/09/08 06:07:55;;;;;;;3.30;2.80;;;16.70;99.90;;;;;;5054420;28;20456;-80
2023/09/08 06:10:22;;;;;;;4.33;3.07;;;16.80;99.90;;;;;;5054067;28;20441;-80
2023/09/08 06:12:50;;;;;;;3.70;2.23;;;16.80;99.90;;;;;;5054315;28;20449;-80
2023/09/08 06:15:17;;;;;;;2.93;2.67;;;16.90;99.90;;;;;;5054217;28;20491;-80
2023/09/08 06:17:46;;;;;;;3.67;3.37;;;17.00;99.90;;;;;;5054211;28;20445;-80
2023/09/08 06:20:13;;;;;;;6.07;3.73;;;17.00;99.90;;;;;;5053782;28;20508;-80
2023/09/08 06:22:40;;;;;;;4.73;3.37;;;17.10;99.90;;;;;;5054692;28;20457;-80
2023/09/08 06:25:07;;;;;;;3.67;3.30;;;17.30;99.90;;;;;;5053656;28;20469;-80
2023/09/08 06:27:34;;;;;;;4.97;2.83;;;17.50;99.90;;;;;;5054080;28;20434;-80
2023/09/08 06:30:01;;;;;;;5.33;3.53;;;17.70;99.90;;;;;;5053400;28;20449;-80
2023/09/08 06:32:28;;;;;;;5.00;2.90;;;17.90;99.90;;;;;;5053921;28;20537;-80
2023/09/08 06:34:56;;;;;;;5.00;3.37;;;18.10;99.90;;;;;;5053781;28;20462;-80
2023/09/08 06:37:22;;;;;;;5.07;4.07;;;18.30;99.90;;;;;;5053498;28;20462;-80
2023/09/08 06:39:49;;;;;;;5.80;4.37;;;18.50;99.90;;;;;;5053498;28;20449;-80
2023/09/08 06:42:16;;;;;;;5.10;3.20;;;18.50;99.90;;;;;;5053639;28;20485;-81
2023/09/08 06:44:43;;;;;;;4.73;3.53;;;18.60;99.90;;;;;;5053390;28;20461;-80
2023/09/08 06:47:09;;;;;;;4.37;3.10;;;18.70;99.90;;;;;;5053667;28;20450;-80
2023/09/08 06:49:36;;;;;;;4.33;2.90;;;18.80;99.90;;;;;;5053316;28;20958;-80
2023/09/08 06:52:05;;;;;;;4.93;3.87;;;18.90;99.90;;;;;;5053598;28;20446;-80
2023/09/08 06:54:32;;;;;;;4.00;3.60;;;19.00;99.90;;;;;;5053506;28;20446;-80
2023/09/08 06:56:59;;;;;;;4.07;3.10;;;19.00;99.90;;;;;;5053543;28;20504;-80
2023/09/08 06:59:26;;;;;;;4.57;4.00;;;19.10;99.90;;;;;;5053717;28;20446;-80
2023/09/08 07:01:52;;;;;;;6.37;3.83;;;19.20;99.90;;;;;;5053143;28;21005;-81
2023/09/08 07:04:19;;;;;;;4.17;3.40;;;19.20;99.90;;;;;;5053029;28;20939;-81
2023/09/08 07:06:46;;;;;;;7.33;4.47;;;19.40;99.90;;;;;;5043963;28;20447;-81
2023/09/08 07:09:15;;;;;;;5.80;3.73;;;19.40;99.90;;;;;;5034261;28;20422;-81
2023/09/08 07:11:42;;;;;;;7.43;3.67;;;19.60;99.90;;;;;;5033424;28;20797;-81
2023/09/08 07:14:09;;;;;;;3.93;3.53;;;19.70;99.90;;;;;;5033121;28;20450;-81
2023/09/08 07:16:36;;;;;;;4.63;4.03;;;19.70;99.90;;;;;;5033331;28;20474;-81
2023/09/08 07:19:03;;;;;;;5.10;3.33;;;19.90;99.90;;;;;;5033040;28;20446;-81
2023/09/08 07:21:30;;;;;;;4.73;3.83;;;20.00;99.90;;;;;;5032914;28;20513;-81
2023/09/08 07:23:58;;;;;;;5.60;3.67;;;20.10;99.90;;;;;;5033114;28;20445;-82
2023/09/08 07:26:26;;;;;;;6.13;4.07;;;20.20;99.90;;;;;;5032734;28;20478;-82
2023/09/08 07:28:53;;;;;;;7.23;4.43;;;20.30;99.90;;;;;;5033404;28;20477;-81
2023/09/08 07:31:20;;;;;;;5.97;3.93;;;20.40;99.90;;;;;;5032916;28;20501;-81
2023/09/08 07:33:48;;;;;;;6.30;3.57;;;20.40;99.90;;;;;;5032947;28;20439;-81
2023/09/08 07:36:14;;;;;;;3.40;2.90;;;20.50;99.90;;;;;;5032972;28;20455;-80
2023/09/08 07:38:41;;;;;;;6.00;4.40;;;20.50;99.90;;;;;;5032925;28;20438;-80
2023/09/08 07:41:08;;;;;;;4.00;3.57;;;20.60;99.90;;;;;;5034375;28;20489;-80
2023/09/08 07:43:40;;;;;;;5.20;3.63;;;20.70;99.90;;;;;;5036952;28;20449;-80
2023/09/08 07:46:06;;;;;;;3.93;3.00;;;20.80;99.90;;;;;;5037153;28;20464;-80
2023/09/08 07:48:33;;;;;;;4.23;3.37;;;21.00;99.90;;;;;;5036878;28;20434;-81
2023/09/08 07:51:00;;;;;;;6.10;3.00;;;21.10;99.90;;;;;;5037135;28;20446;-80
2023/09/08 07:53:27;;;;;;;5.40;4.10;;;21.10;99.90;;;;;;5037262;28;20445;-81
2023/09/08 07:55:54;;;;;;;4.97;3.60;;;21.20;99.90;;;;;;5036668;28;20458;-80
2023/09/08 07:58:22;;;;;;;6.60;2.70;;;21.30;99.90;;;;;;5036680;28;20434;-80
2023/09/08 08:00:50;;;;;;;6.40;3.87;;;21.40;99.90;;;;;;5036585;28;20486;-80
2023/09/08 08:03:17;;;;;;;4.67;3.37;;;21.60;99.90;;;;;;5036868;28;20450;-80
2023/09/08 08:05:44;;;;;;;3.37;2.97;;;21.80;99.90;;;;;;5036708;28;20453;-81
2023/09/08 08:08:11;;;;;;;4.80;3.13;;;21.90;99.90;;;;;;5036825;28;20452;-81
2023/09/08 08:10:37;;;;;;;5.10;3.37;;;22.20;99.90;;;;;;5036531;28;20433;-80
2023/09/08 08:13:04;;;;;;;5.70;3.70;;;22.30;99.90;;;;;;5036692;28;20450;-80
2023/09/08 08:15:38;;;;;;;3.00;2.57;;;22.40;99.90;;;;;;5036549;28;20462;-80
2023/09/08 08:18:09;;;;;;;4.30;3.40;;;22.50;99.90;;;;;;5036570;28;20448;-80
2023/09/08 08:20:36;;;;;;;4.33;2.90;;;22.60;99.90;;;;;;5036681;28;20434;-80
2023/09/08 08:23:03;;;;;;;4.20;3.43;;;22.60;99.90;;;;;;5036487;28;20191;-80
2023/09/08 08:25:30;;;;;;;5.20;3.70;;;22.70;99.90;;;;;;5036080;28;20246;-80
2023/09/08 08:27:58;;;;;;;4.30;3.30;;;22.90;99.90;;;;;;5036731;28;20184;-80
2023/09/08 08:30:25;;;;;;;3.80;3.15;;;23.00;99.90;;;;;;5036350;28;20203;-80
2023/09/08 08:32:53;;;;;;;3.13;2.93;;;23.10;99.90;;;;;;5036350;28;20571;-80
2023/09/08 08:35:21;;;;;;;3.13;2.92;;;23.20;99.90;;;;;;5036220;28;20219;-80
2023/09/08 08:37:48;;;;;;;3.57;2.83;;;23.30;99.90;;;;;;5036033;28;20564;-80
2023/09/08 08:40:14;;;;;;;6.13;3.38;;;23.40;99.90;;;;;;5035839;28;20676;-80
2023/09/08 08:42:42;;;;;;;4.05;3.65;;;23.60;99.90;;;;;;5035794;28;20215;-80
2023/09/08 08:45:10;;;;;;;5.80;3.60;;;23.70;99.90;;;;;;5035818;28;20215;-80
2023/09/08 08:47:37;;;;;;;2.83;2.63;;;23.60;99.90;;;;;;5035737;28;20211;-80
2023/09/08 08:50:04;;;;;;;4.60;3.38;;;23.70;99.90;;;;;;5035978;28;20207;-80
2023/09/08 08:52:33;;;;;;;3.60;3.30;;;23.80;99.90;;;;;;5035358;28;20211;-80
2023/09/08 08:55:00;;;;;;;3.38;3.05;;;23.90;99.90;;;;;;5036250;28;20215;-80
2023/09/08 08:57:28;;;;;;;3.22;2.88;;;24.00;99.90;;;;;;5035601;28;20202;-81
2023/09/08 08:59:55;;;;;;;3.53;3.22;;;24.20;99.90;;;;;;5036037;28;20258;-81
2023/09/08 09:02:23;;;;;;;7.88;3.55;;;24.30;99.90;;;;;;5035716;28;20215;-81
2023/09/08 09:04:50;;;;;;;3.40;3.10;;;24.50;99.90;;;;;;5035570;28;20223;-81
2023/09/08 09:07:19;;;;;;;5.25;3.55;;;24.70;99.90;;;;;;5035735;28;20203;-81
2023/09/08 09:09:47;;;;;;;2.70;2.50;;;24.70;99.90;;;;;;5035682;28;20200;-81
2023/09/08 09:12:14;;;;;;;4.28;3.88;;;24.90;99.90;;;;;;5035653;28;20195;-81
2023/09/08 09:14:46;;;;;;;3.00;2.80;;;24.90;99.90;;;;;;5035480;28;20225;-81
2023/09/08 09:17:14;;;;;;;4.25;2.90;;;25.10;99.90;;;;;;5035570;28;20188;-80
2023/09/08 09:19:41;;;;;;;4.55;3.25;;;25.10;99.90;;;;;;5035439;28;20211;-81
2023/09/08 09:22:08;;;;;;;3.47;2.63;;;25.30;99.90;;;;;;5035397;28;20219;-81
2023/09/08 09:24:40;;;;;;;3.58;3.30;;;25.50;99.90;;;;;;5034973;28;20783;-81
2023/09/08 09:27:09;;;;;;;3.05;2.75;;;25.80;99.90;;;;;;5034313;28;20223;-81
2023/09/08 09:29:46;;;;;;;3.50;3.08;;;26.20;99.90;;;;;;5015202;28;20204;-81
2023/09/08 09:32:13;;;;;;;3.75;2.92;;;26.30;99.90;;;;;;5015523;28;20184;-81
2023/09/08 09:34:49;;;;;;;5.50;3.53;;;26.30;99.90;;;;;;5014869;28;20228;-81
2023/09/08 09:37:16;;;;;;;4.40;3.30;;;26.30;99.90;;;;;;5014891;28;20695;-81
2023/09/08 09:39:43;;;;;;;3.35;2.85;;;26.40;99.90;;;;;;5014435;28;20210;-81
2023/09/08 09:42:11;;;;;;;2.97;2.78;;;26.40;99.90;;;;;;5015201;28;20224;-81
2023/09/08 09:44:38;;;;;;;5.38;3.72;;;26.40;99.90;;;;;;5014984;28;20222;-81
2023/09/08 09:47:06;;;;;;;3.35;3.00;;;26.50;99.90;;;;;;5015133;28;20573;-81
2023/09/08 09:49:42;;;;;;;4.43;3.33;;;26.80;99.90;;;;;;5014957;28;20216;-81
2023/09/08 09:52:08;;;;;;;3.10;2.40;;;26.90;99.90;;;;;;5015001;28;20188;-80
2023/09/08 09:54:35;;;;;;;2.72;2.47;;;26.80;99.90;;;;;;5015796;28;20223;-81
2023/09/08 09:57:03;;;;;;;3.45;3.15;;;26.80;99.90;;;;;;5014762;28;20218;-81
2023/09/08 09:59:31;;;;;;;4.70;3.33;;;26.80;99.90;;;;;;5014890;28;20207;-82
2023/09/08 10:01:59;;;;;;;2.90;2.70;;;26.90;99.90;;;;;;5014466;28;20589;-81
2023/09/08 10:04:26;;;;;;;3.47;2.95;;;26.90;99.90;;;;;;5013654;28;20201;-81
2023/09/08 10:06:54;;;;;;;5.85;3.35;;;27.00;99.90;;;;;;5014722;28;20207;-80
2023/09/08 10:09:21;;;;;;;4.05;3.65;;;27.20;99.90;;;;;;5013983;28;20214;-80
2023/09/08 10:11:49;;;;;;;3.22;2.90;;;27.20;99.90;;;;;;5013964;28;20732;-80
2023/09/08 10:14:19;;;;;;;2.83;2.60;;;27.20;99.90;;;;;;5014277;28;20210;-80
2023/09/08 10:16:52;;;;;;;3.30;3.08;;;27.20;99.90;;;;;;5014604;28;20208;-82
2023/09/08 10:19:20;;;;;;;6.05;3.28;;;27.20;99.90;;;;;;5014624;28;20283;-82
2023/09/08 10:21:48;;;;;;;2.67;2.47;;;27.10;99.90;;;;;;5014197;28;20228;-81
2023/09/08 10:24:16;;;;;;;3.10;2.80;;;27.20;99.90;;;;;;5014056;28;20695;-81
2023/09/08 10:26:47;;;;;;;2.78;2.40;;;27.30;99.90;;;;;;5014099;28;20465;-82
2023/09/08 10:29:15;;;;;;;3.92;3.15;;;27.50;99.90;;;;;;5014463;28;20198;-82
2023/09/08 10:31:42;;;;;;;3.85;2.58;;;27.40;99.90;;;;;;5014339;28;20204;-80
2023/09/08 10:34:10;;;;;;;8.52;3.15;;;27.50;99.90;;;;;;5014310;28;20574;-80
2023/09/08 10:36:38;;;;;;;4.95;2.40;;;27.50;99.90;;;;;;5014397;28;20234;-80
2023/09/08 10:39:35;;;;;;;3.03;2.83;;;27.70;99.90;;;;;;5014251;28;20299;-80
2023/09/08 10:42:29;;;;;;;4.32;2.83;;;27.60;99.90;;;;;;5013770;28;20226;-80
2023/09/08 10:45:04;;;;;;;3.20;2.80;;;27.60;99.90;;;;;;5014074;28;20220;-80
2023/09/08 10:47:36;;;;;;;3.30;2.90;;;27.70;99.90;;;;;;5014138;28;20192;-81
2023/09/08 10:50:05;;;;;;;3.15;2.95;;;27.70;99.90;;;;;;5014052;28;20192;-81
2023/09/08 10:52:35;;;;;;;2.83;2.63;;;27.70;99.90;;;;;;5014022;28;20206;-80
2023/09/08 10:55:02;;;;;;;2.92;2.78;;;27.90;99.90;;;;;;5013787;28;20274;-80
2023/09/08 10:57:33;;;;;;;3.65;2.63;;;28.00;99.90;;;;;;5013838;28;20204;-79
2023/09/08 11:00:05;;;;;;;3.47;3.17;;;27.90;99.90;;;;;;5013931;28;20188;-80
2023/09/08 11:02:37;;;;;;;3.38;3.08;;;28.10;99.90;;;;;;5013809;28;20243;-80
2023/09/08 11:05:08;;;;;;;3.55;2.60;;;28.20;99.90;;;;;;5013775;28;20223;-80
2023/09/08 11:07:36;;;;;;;3.42;2.80;;;28.20;99.90;;;;;;5014176;28;20292;-80
2023/09/08 11:10:04;;;;;;;3.33;2.55;;;28.20;99.90;;;;;;5013753;28;20236;-81
2023/09/08 11:12:31;;;;;;;5.53;2.30;;;28.20;99.90;;;;;;5013722;28;20200;-81
2023/09/08 11:15:00;;;;;;;2.80;2.53;;;28.00;99.90;;;;;;5013079;28;20231;-81
2023/09/08 11:17:27;;;;;;;3.25;3.03;;;28.00;99.90;;;;;;5013648;28;20200;-80
2023/09/08 11:19:55;;;;;;;3.10;2.80;;;27.90;99.90;;;;;;5013672;28;20243;-80
2023/09/08 11:22:25;;;;;;;2.60;2.50;;;28.00;99.90;;;;;;5012756;28;20224;-80
2023/09/08 11:24:52;;;;;;;2.22;2.03;;;28.10;99.90;;;;;;5013030;28;20219;-81
2023/09/08 11:27:20;;;;;;;3.28;3.08;;;28.10;99.90;;;;;;5013323;28;20243;-82
2023/09/08 11:29:47;;;;;;;3.92;2.90;;;28.00;99.90;;;;;;5013559;28;20201;-81
2023/09/08 11:32:13;;;;;;;3.53;2.80;;;28.00;99.90;;;;;;5013547;28;20207;-81
2023/09/08 11:34:41;;;;;;;3.08;2.83;;;28.00;99.90;;;;;;5013427;28;20724;-81
2023/09/08 11:37:09;;;;;;;3.03;2.78;;;28.00;99.90;;;;;;5013336;28;20200;-81
2023/09/08 11:39:39;;;;;;;4.90;2.80;;;28.00;99.90;;;;;;5013680;28;20205;-81
2023/09/08 11:42:06;;;;;;;4.78;3.00;;;28.00;99.90;;;;;;5013010;28;20636;-81
2023/09/08 11:44:34;;;;;;;2.80;2.47;;;28.00;99.90;;;;;;5013012;28;20306;-81
2023/09/08 11:47:01;;;;;;;2.45;2.33;;;28.00;99.90;;;;;;5013070;28;20214;-80
2023/09/08 11:49:34;;;;;;;4.57;2.53;;;28.00;99.90;;;;;;5013760;28;20653;-80
2023/09/08 11:52:01;;;;;;;3.38;3.13;;;27.90;99.90;;;;;;5013148;28;20185;-80
2023/09/08 11:54:28;;;;;;;3.28;2.35;;;28.00;99.90;;;;;;5013330;28;20196;-80
2023/09/08 11:56:57;;;;;;;3.85;3.22;;;28.00;99.90;;;;;;5013186;28;20290;-80
2023/09/08 11:59:24;;;;;;;3.58;3.28;;;28.00;99.90;;;;;;5013296;28;20211;-80
2023/09/08 12:01:51;;;;;;;3.30;3.05;;;28.00;99.90;;;;;;5013189;28;20205;-81
2023/09/08 12:04:20;;;;;;;4.95;3.20;;;27.80;99.90;;;;;;5012901;28;20196;-81
2023/09/08 12:06:47;;;;;;;2.65;2.45;;;27.70;99.90;;;;;;5013447;28;20209;-80
2023/09/08 12:09:14;;;;;;;4.50;2.78;;;27.70;99.90;;;;;;5013051;28;20563;-80
2023/09/08 12:11:42;;;;;;;2.80;2.60;;;27.80;99.90;;;;;;5012710;28;20677;-80
2023/09/08 12:14:12;;;;;;;2.53;2.33;;;27.80;99.90;;;;;;5013066;28;20204;-81
2023/09/08 12:16:39;;;;;;;6.53;2.85;;;27.70;99.90;;;;;;5012901;28;20204;-80
2023/09/08 12:19:06;;;;;;;4.90;2.67;;;27.60;99.90;;;;;;5012745;28;20288;-80
2023/09/08 12:21:36;;;;;;;3.78;2.28;;;27.70;99.90;;;;;;5013067;28;20200;-80
2023/09/08 12:24:03;;;;;;;2.38;2.17;;;27.70;99.90;;;;;;5012733;28;20220;-80
2023/09/08 12:26:30;;;;;;;2.40;2.17;;;27.60;99.90;;;;;;5012694;28;20246;-81
2023/09/08 12:28:57;;;;;;;2.58;2.30;;;27.50;99.90;;;;;;5016658;28;20250;-80
2023/09/08 12:31:25;;;;;;;3.95;2.70;;;27.40;99.90;;;;;;5016671;28;20187;-80
2023/09/08 12:33:53;;;;;;;2.85;2.65;;;27.30;99.90;;;;;;5016547;28;20203;-80
2023/09/08 12:36:21;;;;;;;2.90;2.70;;;27.20;99.90;;;;;;5016196;28;20223;-80
2023/09/08 12:38:52;;;;;;;2.55;2.40;;;27.10;99.90;;;;;;5016458;28;20196;-80
2023/09/08 12:41:19;;;;;;;2.92;2.70;;;27.10;99.90;;;;;;5016445;28;20192;-80
2023/09/08 12:43:46;;;;;;;3.63;3.05;;;27.10;99.90;;;;;;5015985;28;20705;-80
2023/09/08 12:46:13;;;;;;;2.97;2.67;;;27.00;99.90;;;;;;5016289;28;20226;-80
2023/09/08 12:48:41;;;;;;;11.55;3.40;;;26.90;99.90;;;;;;5016272;28;20216;-80